createdAt,value
2022-09-13T00:00:46.875Z,16.50
2022-09-13T00:03:34.393Z,16.30
2022-09-13T00:06:21.891Z,16.20
2022-09-13T00:09:09.033Z,16.10
2022-09-13T00:11:56.312Z,16.10
2022-09-13T00:14:43.676Z,16.20
2022-09-13T00:17:30.925Z,16.10
2022-09-13T00:20:18.476Z,16.20
2022-09-13T00:23:06.082Z,16.10
2022-09-13T00:25:54.054Z,16.10
2022-09-13T00:28:41.880Z,16.10
2022-09-13T00:31:29.763Z,16.10
2022-09-13T00:34:17.586Z,16.00
2022-09-13T00:37:05.508Z,15.90
2022-09-13T00:39:52.940Z,15.80
2022-09-13T00:42:40.225Z,15.80
2022-09-13T00:45:28.072Z,15.80
2022-09-13T00:48:21.575Z,15.80
2022-09-13T00:51:10.738Z,15.80
2022-09-13T00:53:59.809Z,15.80
2022-09-13T00:56:50.177Z,15.70
2022-09-13T00:59:43.440Z,15.70
2022-09-13T01:02:31.547Z,15.80
2022-09-13T01:05:21.871Z,15.80
2022-09-13T01:08:12.746Z,15.70
2022-09-13T01:11:01.990Z,15.50
2022-09-13T01:13:51.178Z,15.40
2022-09-13T01:16:38.497Z,15.30
2022-09-13T01:19:26.107Z,15.20
2022-09-13T01:22:25.918Z,15.20
2022-09-13T01:25:39.484Z,15.30
2022-09-13T01:28:32.764Z,15.40
2022-09-13T01:31:24.303Z,15.50
2022-09-13T01:34:20.426Z,15.50
2022-09-13T01:37:17.039Z,15.40
2022-09-13T01:40:07.315Z,15.30
2022-09-13T01:43:15.145Z,15.30
2022-09-13T01:46:06.292Z,15.20
2022-09-13T01:49:05.216Z,15.20
2022-09-13T01:52:30.658Z,15.10
2022-09-13T01:55:36.469Z,15.20
2022-09-13T01:58:30.068Z,15.20
2022-09-13T02:01:38.734Z,15.00
2022-09-13T02:04:28.747Z,14.80
2022-09-13T02:07:24.163Z,14.80
2022-09-13T02:10:17.238Z,14.90
2022-09-13T02:13:07.431Z,15.00
2022-09-13T02:15:57.716Z,15.10
2022-09-13T02:18:47.768Z,15.20
2022-09-13T02:21:39.355Z,15.10
2022-09-13T02:24:36.688Z,15.00
2022-09-13T02:27:27.174Z,15.00
2022-09-13T02:30:17.079Z,14.90
2022-09-13T02:33:12.964Z,14.90
2022-09-13T02:36:12.445Z,14.80
2022-09-13T02:39:15.761Z,14.90
2022-09-13T02:42:24.762Z,15.00
2022-09-13T02:45:14.916Z,15.00
2022-09-13T02:48:10.813Z,14.90
2022-09-13T02:51:06.617Z,14.80
2022-09-13T02:54:05.461Z,14.80
2022-09-13T02:57:07.384Z,14.90
2022-09-13T02:59:54.596Z,15.00
2022-09-13T03:02:43.745Z,15.10
2022-09-13T03:05:31.708Z,15.20
2022-09-13T03:08:19.939Z,15.20
2022-09-13T03:11:13.393Z,15.20
2022-09-13T03:14:17.950Z,15.30
2022-09-13T03:17:11.113Z,15.40
2022-09-13T03:20:13.535Z,15.50
2022-09-13T03:23:21.704Z,15.50
2022-09-13T03:26:21.503Z,15.50
2022-09-13T03:29:29.621Z,15.40
2022-09-13T03:32:22.789Z,15.40
2022-09-13T03:35:29.949Z,15.50
2022-09-13T03:38:20.295Z,15.50
2022-09-13T03:41:19.972Z,15.60
2022-09-13T03:44:10.760Z,15.70
2022-09-13T03:47:01.400Z,15.70
2022-09-13T03:49:50.697Z,15.70
2022-09-13T03:52:38.220Z,15.70
2022-09-13T03:55:25.844Z,15.60
2022-09-13T03:58:15.709Z,15.70
2022-09-13T04:01:03.207Z,15.80
2022-09-13T04:03:55.869Z,15.80
2022-09-13T04:06:39.676Z,15.70
2022-09-13T04:09:27.173Z,15.70
2022-09-13T04:12:15.963Z,15.60
2022-09-13T04:15:03.316Z,15.60
2022-09-13T04:17:50.808Z,15.50
2022-09-13T04:20:38.059Z,15.60
2022-09-13T04:23:27.337Z,15.50
2022-09-13T04:26:14.741Z,15.60
2022-09-13T04:29:01.974Z,15.70
2022-09-13T04:31:50.353Z,15.70
2022-09-13T04:34:37.592Z,15.70
2022-09-13T04:37:25.138Z,15.80
2022-09-13T04:40:13.905Z,15.70
2022-09-13T04:43:03.029Z,15.70
2022-09-13T04:45:50.315Z,15.80
2022-09-13T04:48:37.685Z,15.90
2022-09-13T04:51:25.196Z,15.90
2022-09-13T04:54:15.541Z,16.00
2022-09-13T04:57:01.953Z,16.00
2022-09-13T04:59:49.261Z,16.00
2022-09-13T05:02:36.978Z,16.00
2022-09-13T05:05:25.871Z,15.90
2022-09-13T05:08:14.761Z,16.00
2022-09-13T05:11:01.888Z,16.00
2022-09-13T05:13:56.067Z,15.90
2022-09-13T05:16:43.451Z,16.10
2022-09-13T05:19:30.859Z,16.10
2022-09-13T05:22:18.522Z,16.10
2022-09-13T05:25:06.613Z,16.10
2022-09-13T05:27:53.841Z,16.20
2022-09-13T05:30:42.442Z,16.30
2022-09-13T05:33:32.686Z,16.30
2022-09-13T05:36:20.309Z,16.30
2022-09-13T05:39:29.553Z,16.30
2022-09-13T05:41:59.761Z,16.40
2022-09-13T05:44:47.279Z,16.50
2022-09-13T05:48:12.198Z,16.50
2022-09-13T05:51:00.512Z,16.50
2022-09-13T05:53:49.889Z,16.60
2022-09-13T05:56:37.318Z,16.80
2022-09-13T05:59:24.998Z,16.90
2022-09-13T06:02:12.356Z,17.10
2022-09-13T06:04:59.525Z,17.20
2022-09-13T06:07:46.677Z,17.20
2022-09-13T06:10:33.728Z,17.30
2022-09-13T06:13:21.229Z,17.40
2022-09-13T06:16:10.926Z,17.50
2022-09-13T06:18:59.420Z,17.70
2022-09-13T06:21:46.680Z,17.80
2022-09-13T06:24:35.953Z,17.80
2022-09-13T06:27:23.265Z,17.90
2022-09-13T06:30:12.346Z,18.10
2022-09-13T06:32:59.513Z,18.20
2022-09-13T06:35:46.913Z,18.20
2022-09-13T06:38:34.542Z,18.20
2022-09-13T06:41:25.016Z,18.30
2022-09-13T06:44:12.648Z,18.30
2022-09-13T06:46:59.886Z,18.40
2022-09-13T06:49:47.578Z,18.50
2022-09-13T06:52:34.822Z,18.50
2022-09-13T06:55:22.481Z,18.50
2022-09-13T06:58:09.767Z,18.60
2022-09-13T07:00:58.555Z,18.60
2022-09-13T07:03:54.205Z,18.60
2022-09-13T07:06:43.625Z,18.60
2022-09-13T07:09:30.671Z,18.60
2022-09-13T07:12:20.565Z,18.60
2022-09-13T07:15:07.608Z,18.60
2022-09-13T07:17:54.957Z,18.70
2022-09-13T07:20:42.039Z,18.80
2022-09-13T07:23:29.637Z,18.90
2022-09-13T07:26:17.351Z,18.90
2022-09-13T07:29:08.458Z,18.90
2022-09-13T07:31:56.721Z,19.00
2022-09-13T07:34:43.943Z,19.10
2022-09-13T07:37:31.176Z,19.20
2022-09-13T07:40:19.335Z,19.20
2022-09-13T07:43:06.828Z,19.20
2022-09-13T07:46:02.661Z,19.30
2022-09-13T07:48:51.721Z,19.20
2022-09-13T07:51:41.059Z,19.20
2022-09-13T07:54:28.178Z,19.30
2022-09-13T07:57:15.322Z,19.50
2022-09-13T08:00:02.916Z,19.40
2022-09-13T08:02:50.311Z,19.40
2022-09-13T08:05:43.197Z,19.50
2022-09-13T08:08:32.178Z,19.70
2022-09-13T08:11:22.475Z,19.90
2022-09-13T08:14:12.441Z,19.90
2022-09-13T08:16:59.392Z,19.70
2022-09-13T08:19:46.816Z,19.70
2022-09-13T08:22:34.219Z,19.60
2022-09-13T08:25:21.288Z,19.70
2022-09-13T08:28:17.310Z,19.60
2022-09-13T08:31:18.905Z,19.60
2022-09-13T08:34:06.453Z,19.60
2022-09-13T08:36:53.735Z,19.70
2022-09-13T08:39:41.428Z,19.80
2022-09-13T08:42:43.920Z,19.80
2022-09-13T08:45:31.352Z,19.90
2022-09-13T08:48:21.815Z,20.00
2022-09-13T08:51:12.017Z,20.30
2022-09-13T08:54:00.146Z,20.40
2022-09-13T08:57:05.289Z,20.70
2022-09-13T09:00:15.892Z,20.80
2022-09-13T09:03:05.470Z,20.80
2022-09-13T09:05:55.998Z,20.50
2022-09-13T09:08:54.938Z,20.40
2022-09-13T09:11:59.175Z,20.30
2022-09-13T09:14:49.715Z,20.20
2022-09-13T09:17:49.396Z,20.20
2022-09-13T09:20:45.152Z,20.00
2022-09-13T09:23:47.521Z,19.80
2022-09-13T09:26:35.133Z,19.60
2022-09-13T09:29:26.555Z,19.50
2022-09-13T09:32:25.881Z,19.40
2022-09-13T09:35:17.412Z,19.30
2022-09-13T09:38:10.592Z,19.20
2022-09-13T09:40:59.687Z,19.30
2022-09-13T09:43:53.430Z,19.20
2022-09-13T09:46:43.446Z,19.20
2022-09-13T09:49:55.141Z,19.40
2022-09-13T09:53:02.490Z,19.50
2022-09-13T09:56:02.642Z,19.30
2022-09-13T09:58:50.084Z,19.40
2022-09-13T10:01:40.013Z,19.40
2022-09-13T10:04:29.045Z,19.30
2022-09-13T10:07:32.554Z,19.50
2022-09-13T10:10:26.256Z,19.60
2022-09-13T10:13:22.378Z,19.70
2022-09-13T10:16:27.355Z,19.60
2022-09-13T10:19:28.340Z,19.80
2022-09-13T10:22:15.489Z,20.10
2022-09-13T10:25:27.595Z,20.20
2022-09-13T10:28:20.128Z,20.10
2022-09-13T10:31:13.711Z,20.30
2022-09-13T10:34:04.754Z,20.60
2022-09-13T10:36:58.021Z,20.60
2022-09-13T10:40:04.483Z,20.60
2022-09-13T10:42:54.982Z,20.80
2022-09-13T10:45:42.835Z,20.90
2022-09-13T10:48:32.167Z,21.00
2022-09-13T10:51:30.833Z,21.30
2022-09-13T10:54:23.935Z,21.30
2022-09-13T10:57:31.432Z,21.30
2022-09-13T11:00:21.326Z,21.30
2022-09-13T11:03:29.871Z,21.50
2022-09-13T11:06:24.431Z,21.60
2022-09-13T11:09:36.333Z,21.70
2022-09-13T11:12:33.054Z,21.40
2022-09-13T11:15:54.313Z,21.40
2022-09-13T11:18:47.419Z,21.60
2022-09-13T11:21:52.821Z,21.90
2022-09-13T11:24:48.709Z,22.10
2022-09-13T11:27:45.192Z,22.20
2022-09-13T11:30:35.656Z,22.20
2022-09-13T11:33:40.578Z,22.40
2022-09-13T11:37:04.006Z,22.40
2022-09-13T11:40:07.648Z,22.40
2022-09-13T11:43:15.627Z,22.30
2022-09-13T11:46:06.017Z,22.10
2022-09-13T11:49:29.391Z,22.20
2022-09-13T11:52:26.377Z,22.60
2022-09-13T11:55:14.162Z,22.60
2022-09-13T11:58:04.327Z,22.80
2022-09-13T12:01:00.145Z,22.90
2022-09-13T12:03:53.250Z,23.00
2022-09-13T12:06:43.579Z,23.00
2022-09-13T12:09:33.615Z,23.30
2022-09-13T12:12:23.453Z,23.50
2022-09-13T12:15:20.057Z,23.50
2022-09-13T12:18:25.101Z,23.60
2022-09-13T12:21:15.500Z,23.90
2022-09-13T12:27:09.781Z,24.30
2022-09-13T12:30:00.233Z,24.60
2022-09-13T12:32:49.195Z,25.00
2022-09-13T12:35:42.494Z,25.30
2022-09-13T12:38:44.943Z,25.50
2022-09-13T12:41:53.405Z,25.40
2022-09-13T12:45:11.046Z,25.10
2022-09-13T12:48:25.921Z,24.90
2022-09-13T12:51:31.568Z,24.40
2022-09-13T12:54:28.112Z,24.10
2022-09-13T12:57:33.670Z,24.00
2022-09-13T13:00:30.233Z,23.80
2022-09-13T13:03:19.603Z,23.60
2022-09-13T13:06:13.174Z,23.50
2022-09-13T13:09:06.887Z,23.40
2022-09-13T13:11:54.469Z,23.30
2022-09-13T13:14:45.303Z,23.20
2022-09-13T13:17:51.168Z,23.20
2022-09-13T13:20:53.903Z,23.30
2022-09-13T13:23:41.145Z,23.10
2022-09-13T13:26:47.021Z,23.30
2022-09-13T13:29:35.046Z,23.30
2022-09-13T13:32:22.702Z,23.30
2022-09-13T13:35:28.084Z,23.20
2022-09-13T13:38:17.625Z,23.20
2022-09-13T13:41:12.973Z,23.40
2022-09-13T13:44:00.306Z,23.50
2022-09-13T13:46:53.240Z,23.60
2022-09-13T13:49:45.381Z,23.80
2022-09-13T13:52:40.953Z,23.90
2022-09-13T13:55:34.674Z,24.00
2022-09-13T13:58:53.703Z,24.00
2022-09-13T14:01:44.022Z,23.80
2022-09-13T14:04:58.708Z,23.70
2022-09-13T14:08:07.056Z,23.70
2022-09-13T14:11:15.097Z,23.70
2022-09-13T14:14:32.549Z,23.80
2022-09-13T14:17:47.156Z,23.90
2022-09-13T14:20:34.840Z,23.70
2022-09-13T14:23:22.373Z,23.70
2022-09-13T14:26:12.177Z,23.50
2022-09-13T14:28:58.998Z,23.30
2022-09-13T14:31:51.397Z,23.30
2022-09-13T14:34:39.445Z,23.30
2022-09-13T14:37:29.865Z,23.20
2022-09-13T14:40:28.421Z,23.00
2022-09-13T14:43:17.155Z,22.90
2022-09-13T14:46:10.318Z,22.80
2022-09-13T14:49:03.166Z,22.80
2022-09-13T14:51:59.355Z,22.80
2022-09-13T14:54:51.300Z,22.70
2022-09-13T14:57:41.664Z,22.40
2022-09-13T15:00:29.691Z,22.30
2022-09-13T15:03:19.123Z,22.30
2022-09-13T15:06:06.564Z,22.30
2022-09-13T15:08:55.685Z,22.40
2022-09-13T15:11:57.708Z,22.50
2022-09-13T15:14:45.511Z,22.50
2022-09-13T15:17:34.087Z,22.50
2022-09-13T15:20:23.263Z,22.50
2022-09-13T15:23:19.286Z,22.40
2022-09-13T15:26:12.243Z,22.40
2022-09-13T15:29:02.996Z,22.50
2022-09-13T15:31:50.079Z,22.50
2022-09-13T15:34:40.477Z,22.60
2022-09-13T15:37:36.145Z,22.60
2022-09-13T15:40:23.774Z,22.60
2022-09-13T15:43:11.103Z,22.60
2022-09-13T15:46:01.718Z,22.60
2022-09-13T15:48:54.275Z,22.80
2022-09-13T15:51:43.940Z,22.80
2022-09-13T15:54:42.522Z,22.80
2022-09-13T15:57:31.021Z,22.80
2022-09-13T16:00:27.832Z,22.50
2022-09-13T16:03:14.615Z,22.50
2022-09-13T16:06:02.690Z,22.60
2022-09-13T16:08:50.063Z,22.60
2022-09-13T16:11:37.137Z,22.50
2022-09-13T16:14:24.296Z,22.40
2022-09-13T16:17:23.447Z,22.40
2022-09-13T16:20:13.290Z,22.20
2022-09-13T16:23:00.402Z,22.10
2022-09-13T16:25:47.810Z,22.20
2022-09-13T16:28:35.248Z,22.20
2022-09-13T16:31:22.801Z,22.30
2022-09-13T16:34:10.252Z,22.50
2022-09-13T16:36:57.818Z,22.60
2022-09-13T16:39:45.590Z,22.70
2022-09-13T16:42:33.021Z,22.60
2022-09-13T16:45:20.032Z,22.70
2022-09-13T16:48:07.729Z,22.80
2022-09-13T16:50:55.005Z,22.50
2022-09-13T16:53:43.177Z,22.30
2022-09-13T16:56:30.872Z,22.10
2022-09-13T16:59:18.586Z,21.90
2022-09-13T17:02:06.023Z,21.80
2022-09-13T17:04:54.538Z,21.70
2022-09-13T17:07:41.993Z,21.60
2022-09-13T17:10:29.311Z,21.50
2022-09-13T17:13:16.542Z,21.40
2022-09-13T17:16:04.903Z,21.50
2022-09-13T17:18:52.534Z,21.50
2022-09-13T17:21:40.074Z,21.60
2022-09-13T17:24:28.727Z,21.70
2022-09-13T17:27:16.244Z,21.70
2022-09-13T17:30:04.995Z,21.80
2022-09-13T17:32:52.351Z,21.90
2022-09-13T17:35:39.899Z,22.00
2022-09-13T17:38:27.183Z,22.10
2022-09-13T17:41:19.824Z,22.10
2022-09-13T17:44:07.260Z,22.10
2022-09-13T17:46:57.571Z,22.10
2022-09-13T17:49:46.551Z,22.10
2022-09-13T17:52:35.303Z,22.20
2022-09-13T17:55:22.426Z,22.10
2022-09-13T17:58:09.967Z,22.10
2022-09-13T18:01:09.548Z,22.10
2022-09-13T18:03:56.771Z,22.10
2022-09-13T18:06:44.491Z,22.00
2022-09-13T18:09:31.493Z,22.00
2022-09-13T18:12:19.029Z,22.10
2022-09-13T18:15:06.685Z,22.00
2022-09-13T18:17:53.872Z,22.00
2022-09-13T18:20:44.522Z,21.80
2022-09-13T18:23:32.547Z,21.80
2022-09-13T18:26:22.860Z,21.80
2022-09-13T18:29:14.943Z,21.80
2022-09-13T18:32:02.537Z,21.80
2022-09-13T18:34:49.934Z,21.90
2022-09-13T18:37:37.534Z,21.80
2022-09-13T18:40:25.035Z,21.90
2022-09-13T18:43:12.464Z,21.80
2022-09-13T18:46:04.028Z,21.70
2022-09-13T18:48:53.958Z,21.50
2022-09-13T18:51:43.674Z,21.40
2022-09-13T18:54:30.816Z,21.40
2022-09-13T18:57:18.196Z,21.50
2022-09-13T19:00:05.717Z,21.40
2022-09-13T19:03:11.389Z,21.40
2022-09-13T19:05:42.097Z,21.40
2022-09-13T19:08:29.602Z,21.50
2022-09-13T19:11:42.107Z,21.50
2022-09-13T19:14:07.284Z,21.50
2022-09-13T19:16:56.818Z,21.50
2022-09-13T19:19:44.124Z,21.40
2022-09-13T19:22:31.667Z,21.00
2022-09-13T19:25:19.080Z,20.70
2022-09-13T19:28:06.650Z,20.80
2022-09-13T19:30:54.278Z,20.90
2022-09-13T19:33:42.216Z,21.10
2022-09-13T19:36:34.053Z,21.20
2022-09-13T19:39:19.456Z,21.10
2022-09-13T19:42:07.083Z,21.10
2022-09-13T19:44:54.668Z,21.20
2022-09-13T19:48:25.811Z,21.10
2022-09-13T19:50:31.772Z,21.00
2022-09-13T19:53:19.651Z,21.00
2022-09-13T19:56:09.154Z,21.00
2022-09-13T19:58:56.751Z,21.00
2022-09-13T20:01:46.160Z,21.00
2022-09-13T20:04:33.670Z,21.00
2022-09-13T20:07:21.121Z,21.10
2022-09-13T20:10:09.257Z,21.10
2022-09-13T20:12:56.983Z,21.10
2022-09-13T20:15:44.392Z,21.00
2022-09-13T20:18:32.363Z,21.10
2022-09-13T20:21:20.952Z,21.00
2022-09-13T20:24:11.242Z,20.90
2022-09-13T20:26:58.960Z,20.90
2022-09-13T20:29:48.165Z,21.00
2022-09-13T20:32:37.804Z,20.80
2022-09-13T20:35:25.024Z,20.80
2022-09-13T20:38:12.314Z,20.80
2022-09-13T20:41:08.043Z,20.90
2022-09-13T20:43:55.675Z,20.90
2022-09-13T20:46:43.340Z,20.90
2022-09-13T20:49:30.580Z,21.00
2022-09-13T20:52:17.911Z,21.10
2022-09-13T20:55:05.820Z,21.10
2022-09-13T20:57:52.860Z,21.10
2022-09-13T21:00:40.256Z,21.10
2022-09-13T21:03:27.639Z,21.10
2022-09-13T21:06:14.914Z,21.10
2022-09-13T21:09:02.820Z,21.20
2022-09-13T21:11:50.493Z,21.00
2022-09-13T21:14:37.835Z,21.00
2022-09-13T21:17:25.736Z,20.90
2022-09-13T21:20:12.967Z,20.90
2022-09-13T21:23:01.912Z,20.90
2022-09-13T21:25:49.808Z,20.90
2022-09-13T21:28:38.783Z,20.90
2022-09-13T21:31:28.973Z,20.80
2022-09-13T21:34:18.664Z,20.90
2022-09-13T21:37:05.968Z,20.90
2022-09-13T21:39:53.098Z,20.90
2022-09-13T21:42:40.223Z,20.80
2022-09-13T21:45:27.564Z,20.70
2022-09-13T21:48:14.685Z,20.70
2022-09-13T21:51:05.279Z,20.60
2022-09-13T21:53:58.433Z,20.50
2022-09-13T21:56:45.261Z,20.50
2022-09-13T21:59:32.465Z,20.40
2022-09-13T22:02:19.587Z,20.50
2022-09-13T22:05:07.164Z,20.50
2022-09-13T22:07:54.129Z,20.50
2022-09-13T22:10:41.356Z,20.50
2022-09-13T22:13:28.627Z,20.50
2022-09-13T22:16:21.709Z,20.50
2022-09-13T22:19:14.749Z,20.60
2022-09-13T22:22:02.125Z,20.50
2022-09-13T22:24:49.307Z,20.50
2022-09-13T22:27:37.286Z,20.50
2022-09-13T22:30:24.800Z,20.50
2022-09-13T22:33:12.569Z,20.50
2022-09-13T22:36:01.781Z,20.40
2022-09-13T22:38:54.280Z,20.40
2022-09-13T22:41:39.607Z,20.40
2022-09-13T22:44:27.535Z,20.40
2022-09-13T22:47:14.807Z,20.40
2022-09-13T22:50:02.391Z,20.40
2022-09-13T22:52:49.748Z,20.50
2022-09-13T22:55:37.237Z,20.50
2022-09-13T22:58:24.691Z,20.50
2022-09-13T23:01:18.656Z,20.40
2022-09-13T23:04:06.992Z,20.40
2022-09-13T23:06:54.881Z,20.40
2022-09-13T23:09:42.048Z,20.50
2022-09-13T23:12:30.916Z,20.50
2022-09-13T23:15:19.983Z,20.50
2022-09-13T23:18:09.132Z,20.50
2022-09-13T23:20:59.859Z,20.60
2022-09-13T23:23:47.411Z,20.50
2022-09-13T23:26:35.162Z,20.50
2022-09-13T23:29:23.218Z,20.30
2022-09-13T23:32:10.758Z,20.20
2022-09-13T23:34:58.097Z,20.10
2022-09-13T23:37:49.581Z,20.10
2022-09-13T23:40:37.134Z,20.10
2022-09-13T23:43:24.718Z,20.10
2022-09-13T23:46:12.858Z,20.20
2022-09-13T23:49:00.393Z,20.30
2022-09-13T23:51:48.779Z,20.20
2022-09-13T23:54:35.919Z,20.20
2022-09-13T23:57:24.112Z,20.20
